Create Custom Reports and Graphics: Custom Report

Latest Observations

Map

15 Minute Data

Latest Observation

42 Stations

15 Minute Data | America/Los_Angeles
as of 4/18/24 1:30 PM PDT
Station Date Time Temp (°F) RH (%) Dew Pt (°F) Wind Dir (°) Wind Spd (mph) Wind Gust (mph) Solar Rad (W/m2) Latest Rain (In) Daily Rain (In) Daily Max Temp (°F) Daily Min Temp (°F) Daily Max Wind (mph) Daily ETo (in) Daily Leaf Wet (Hrs)
Colony 1 4/18/24 1330 77.2   4.8 47   10 55.5   0.8 WSW | 245 3.2   0.7 6.8   2.0 940   194 0.00 0.00 77.8   4.8 49.2   1.4 6.8   0.6 0.087   0.034 -
Colony 2 4/18/24 1330 77.8   5.0 45   9 54.7   0.2 W | 277 2.4   0.5 6.2   1.3 912   182 0.00 0.00 78.5   4.8 48.8   0.2 6.8   0.2 0.086   0.033 -
Gill Ranch 4/18/24 1330 75.2   4.5 52   11 56.1   1.0 W | 260 2.3   0.7 6.4   2.0 933   143 0.00 0.00 75.9   4.7 46.5   2.0 6.4   0.8 0.088   0.033 -
Borden40 4/18/24 1330 76.8   6.0 49   8 56.0   1.2 WNW | 301 3.6   0.4 7.0   0.8 936   203 0.00 0.00 77.2   6.3 48.0   0.7 11.4   4.6 0.093   0.036 -
5 Wells 4/18/24 1330 77.6   6.6 46   9 55.3   1.4 W | 265 3.3   0.7 8.6   1.0 544   166 0.00 0.00 78.1   6.2 48.4   1.8 8.6   0.6 0.054   0.019 -
Simmerhorn 4/18/24 1330 77.8   5.8 57   10 61.3   1.0 - - - - - - 78.5   6.0 48.2   0.6 - - -
Alta Mesa Rd 4/18/24 1330 76.3   5.0 51   8 56.9   0.5 N | 353 2.9   0.0 5.9   0.4 942   225 0.00 0.00 76.9   5.0 48.3   0.8 7.4   3.3 0.071   0.016 -
Alabama Vineyard 4/18/24 1330 76.4   5.5 57   7 60.1   1.8 WNW | 291 3.0   0.4 7.2   1.9 868   207 0.00 0.00 76.8   5.4 47.9   1.9 8.7   0.4 0.079   0.029 -
Borden Hills 4/18/24 1330 78.1   5.2 51   6 58.3   1.6 WNW | 301 4.2   0.6 9.6   1.1 949   196 0.00 0.00 79.4   5.6 51.3   0.0 9.6   1.1 0.090   0.032 -
Sierra Loma-L27 4/18/24 1330 79.2   5.8 49   10 58.7   0.4 NW | 307 2.6   1.8 6.4   0.1 - 0.00 0.00 79.9   6.2 51.0   1.4 6.4   0.1 - -
Lone Oak-L28 4/18/24 1330 77.3   3.9 50   4 57.4   1.5 WNW | 290 3.3   0.8 8.3   0.7 - 0.00 0.00 78.4   4.3 47.5   0.3 8.3   0.2 - -
Kost Rd 4/18/24 1330 78.4   6.3 56   8 61.4   2.0 WSW | 256 2.0   0.6 6.2   0.7 838   166 0.00 0.00 79.8   6.8 46.9   0.3 6.2   0.6 0.072   0.024 -
Lockeford 4/18/24 1330 75.6   4.2 54   5 58.0   1.4 NNE | 22 2.9   1.0 7.8   0.0 901   194 0.00 0.00 76.1   4.1 46.8   0.1 8.1   1.7 0.082   0.027 7.0   0.8
Thornton 4/18/24 1330 76.6   4.9 49   9 56.0   0.1 NNW | 337 2.8   1.4 6.4   2.0 979   190 0.00 0.00 78.0   5.5 47.6   1.6 7.4   1.0 0.093   0.036 6.4   2.7
Lodi (LangeTwins) 4/18/24 1330 77.3   5.0 54   8 59.2   1.0 NNW | 330 3.0   1.2 6.8   0.7 892   197 0.00 0.00 78.1   5.3 48.4   1.3 7.4   0.7 0.083   0.027 4.2   0.1
Gilbeau Ranch 4/18/24 1330 76.8   4.4 46   5 54.2   1.2 WNW | 288 3.6   1.3 7.2   0.0 857   174 0.00 0.00 77.2   4.5 49.7   1.0 7.2   0.0 0.067   0.019 -
Galt West 4/18/24 1330 76.4   4.2 51   3 57.1   2.4 WSW | 249 3.0   0.2 6.6   2.1 842   170 0.00 0.00 77.1   4.5 47.6   2.9 7.1   1.6 0.078   0.031 -
Valley Oak 4/18/24 1330 77.0   5.1 - - NW | 309 2.3   0.5 6.6   0.1 806   82 0.00 0.00 77.9   5.4 48.9   1.3 7.4   0.1 0.075   0.026 -
Guard Rd (Lodi WSW) 4/18/24 0830 59.3   2.0 87   6 55.4   0.1 N | 356 3.4   1.3 5.6   1.2 273   68 0.00 0.00 60.2   2.5 47.5   0.3 6.0   1.6 0.001   0.000 3.2   3.2
Linden 4/18/24 1330 78.9   4.8 45   8 55.5   0.1 WSW | 245 3.2   0.0 6.4   2.2 - - 0.00 80.3   5.3 46.7   1.0 7.1   2.1 - 7.1   0.8
DeVries Road-North 4/18/24 1330 76.9   5.2 54   9 59.0   0.7 NW | 308 3.2   0.2 6.4   0.4 883   162 0.00 0.00 78.0   5.6 48.8   0.5 9.0   1.2 0.080   0.025 -
Acampo 4/18/24 1330 78.2   6.2 42   9 53.4   0.4 NW | 307 3.1   0.5 7.1   0.0 881   174 - 0.00 78.4   6.2 49.4   1.0 8.1   0.3 0.081   0.025 12.5   0.0
Acampo (Woodbridge) 4/18/24 1330 77.1   5.7 48   7 56.0   1.3 W | 276 2.3   1.5 8.3   0.3 873   198 0.00 0.00 77.6   5.8 48.0   2.2 8.3   0.2 0.079   0.024 -
Lodi West 4/18/24 1330 77.0   4.2 45   5 53.9   0.8 NNW | 341 3.5   0.2 8.8   0.7 896   79 0.00 0.00 78.1   4.3 49.5   1.2 8.8   1.1 0.080   0.017 0.0   0.0
Teresi-Alpine Rd (East Lodi) 4/18/24 1330 79.2   6.8 44   9 55.2   0.8 NW | 324 2.3   1.0 5.2   2.1 - 0.00 0.00 80.2   7.3 49.0   1.0 7.1   2.1 - -
Victor - N (Katusha) 4/18/24 1330 77.7   5.5 44   9 53.9   0.3 NW | 311 2.6   0.6 7.1   2.0 - 0.00 0.00 79.3   6.9 48.0   0.7 13.1   4.0 - -
Live Oak 4/18/24 1330 78.8   5.3 43   5 54.5   1.7 SW | 220 3.6   0.7 8.5   0.8 902   133 0.00 0.00 79.6   5.7 48.7   1.2 8.5   0.4 0.082   0.014 -
Sheldon 4/18/24 1330 78.0   2.7 44   0 54.1   2.5 WSW | 246 4.0   1.1 8.8   1.3 814   24 0.00 0.00 78.3   2.6 47.8   0.3 21.5   13.8 0.076   0.020 6.1   0.1
Sloughhouse 4/18/24 1330 78.3   3.7 45   1 55.2   3.8 NNW | 329 2.7   0.3 7.4   0.3 844   110 0.00 0.00 79.2   4.1 47.5   0.6 9.5   1.0 0.081   0.015 -
Utter - Wilson 4/18/24 1330 79.8   3.5 32   11 47.2   4.6 NNW | 346 1.9   3.4 6.0   2.0 937   67 0.00 0.00 80.6   2.8 51.6   1.1 13.0   0.3 0.092   0.021 -
Clarksburg 4/18/24 1330 78.2   3.8 34   10 47.6   3.2 SW | 231 2.4   1.2 6.8   1.1 924   107 0.00 0.00 78.9   3.6 50.7   0.5 11.0   1.2 0.088   0.029 -
Clarksburg-3A2 4/18/24 1330 75.8   3.4 40   11 49.9   3.7 NE | 38 1.9   3.3 6.3   2.5 891   182 0.00 0.00 76.5   4.0 47.6   0.2 12.3   1.4 0.084   0.033 -
Gorter - Wilson 4/18/24 1330 78.5   3.0 44   8 54.6   2.1 NW | 320 3.5   0.4 8.2   1.0 854   143 0.00 0.00 79.3   2.9 47.4   0.2 10.7   1.0 0.054   0.013 -
Hood 4/18/24 1330 76.9   3.8 41   8 51.1   1.5 NW | 305 2.0   2.1 5.0   3.7 851   208 0.00 0.00 77.7   4.2 47.1   0.6 8.6   0.0 0.079   0.029 -
Courtland-C3 4/18/24 1330 77.9   5.5 40   12 51.4   2.0 W | 272 2.8   2.2 6.4   2.3 - 0.00 0.00 79.1   6.2 48.5   0.2 11.5   1.4 - -
Pacific Fruit 4/18/24 1330 78.1   3.8 41   11 52.5   3.3 WNW | 284 3.0   0.8 7.5   1.6 927   301 0.00 0.00 79.1   4.2 51.8   2.1 11.3   1.7 0.088   0.035 -
Ryer Island South 4/18/24 1330 77.1   3.5 35   13 47.7   5.1 NNW | 329 4.1   1.1 6.7   1.7 926   31 0.00 0.00 78.2   3.8 48.5   0.1 11.9   2.1 0.095   0.028 6.7   1.0
Farmington (Mobley100) 4/18/24 1330 78.0   4.8 52   5 58.9   1.9 ESE | 114 0.1   0.4 1.8   1.0 - - - 78.7   5.1 49.7   1.1 3.2   1.2 - -
Collegeville 4/18/24 1330 77.8   2.3 47   1 56.1   2.6 SSE | 158 1.5   0.8 4.1   1.6 899   9 0.00 0.00 78.6   2.1 48.6   0.7 5.3   3.2 0.083   0.010 -
Oakdale North (28 Mile Rd) 4/18/24 1330 77.2   4.5 53   7 58.7   0.6 W | 278 0.8   0.0 4.8   0.6 - - - 77.6   4.2 50.1   1.2 4.8   0.6 - -
Escalon 4/18/24 1330 78.3   3.5 49   4 57.4   1.2 N | 358 1.4   1.2 4.6   3.4 - 0.00 0.00 79.0   3.6 49.5   1.6 5.8   2.2 - 8.1   0.6
Claussen 4/18/24 1330 79.5   4.0 45   5 56.3   0.8 N | 1 3.4   0.9 7.2   1.2 937   70 0.00 0.00 81.1   4.7 52.0   1.7 8.9   0.6 0.090   0.011 -
Max     79.8 57 61.4 - 4.2 9.6 979 0.00 0.00 81.1 52.0 21.5 0.095 12.5
Avg     77.6 47 55.4 - 2.7 6.7 883 0.00 - - - - - -
Min     75.2 32 47.2 - 0.1 1.8 544 0.00 0.00 75.9 46.5 3.2 0.054 0.0

Latest Observations

Map

Hourly Data